• Join FlightAware (Why Join?)
  • Login
  • US Flag 
Rudolph Flight #1: Arrived! 
06:14AM EST


 

Airport Tracker/Info


-or-


 

Live Flight TrackerFlight Track Log ✈ TAM3194 ✈ 20-May-2013 ✈ SBRJ / SDU - SBVT / VIX

Flight Track Log - Related Links

Times and Time Zones

All times are in EDT time to prevent confusion due to time zone crossing. See the TAM3194 flight status page for this flight to view local times or setup timezone preferences in your user account.

Time Position Orientation Groundspeed Altitude Reporting Facility
EDT Latitude Longitude Course Direction KTS MPH feet Rate Location/Type
11:38AM -22.9270 -43.1590 176° South 148 170 1,000  Level FlightAware
11:38AM -22.9340 -43.1490 127° Southeast 166 191 1,500 2,100 Climbing FlightAware
11:39AM -22.9500 -43.1250 126° Southeast 206 237 2,600 2,220 Climbing FlightAware
11:39AM -22.9590 -43.1140 132° Southeast 224 258 3,200 2,880 Climbing FlightAware
11:39AM -22.9670 -43.0940 113° Southeast 232 267 4,300 3,420 Climbing FlightAware
11:39AM -22.9560 -43.0720 62° Northeast 244 281 5,500 3,000 Climbing FlightAware
11:40AM -22.9280 -43.0460 41° Northeast 290 334 6,800 3,120 Climbing FlightAware
11:40AM -22.9010 -43.0220 39° Northeast 309 356 8,400 3,480 Climbing FlightAware
11:41AM -22.8490 -42.9730 41° Northeast 338 389 10,900 2,640 Climbing FlightAware
11:42AM -22.8000 -42.9230 43° Northeast 388 447 12,200 2,400 Climbing FlightAware
11:42AM -22.7650 -42.8880 43° Northeast 403 464 13,500 2,880 Climbing FlightAware
11:43AM -22.7030 -42.8270 42° Northeast 421 484 15,600 3,240 Climbing FlightAware
11:44AM -22.6460 -42.7690 43° Northeast 416 479 18,100 3,300 Climbing FlightAware
11:44AM -22.5880 -42.7120 42° Northeast 421 484 20,000 2,880 Climbing FlightAware
11:45AM -22.5310 -42.6560 42° Northeast 421 484 22,000 2,700 Climbing FlightAware
11:46AM -22.4740 -42.5990 43° Northeast 427 491 23,600 2,580 Climbing FlightAware
11:46AM -22.4080 -42.5320 43° Northeast 425 489 25,700 2,280 Climbing FlightAware
11:47AM -22.3490 -42.4720 43° Northeast 418 481 26,900 1,080 Climbing FlightAware
11:48AM -22.3070 -42.4300 43° Northeast 417 480 27,000 60 Climbing FlightAware
11:48AM -22.2600 -42.3820 43° Northeast 423 487 27,000  Level FlightAware
11:49AM -22.1930 -42.3150 43° Northeast 423 487 27,000  Level FlightAware
11:50AM -22.1370 -42.2570 44° Northeast 422 486 27,000  Level FlightAware
11:50AM -22.0890 -42.2090 43° Northeast 422 486 27,000  Level FlightAware
11:51AM -22.0230 -42.1430 43° Northeast 422 486 27,000  Level FlightAware
11:51AM -21.9730 -42.0930 43° Northeast 420 483 27,000  Level FlightAware
11:52AM -21.9090 -42.0280 43° Northeast 420 483 27,000  Level FlightAware
11:53AM -21.8520 -41.9700 43° Northeast 422 486 27,000  Level FlightAware
11:54AM -21.7960 -41.9150 42° Northeast 424 488 27,000  Level FlightAware
11:54AM -21.7310 -41.8490 43° Northeast 427 491 27,000  Level FlightAware
11:55AM -21.6720 -41.7900 43° Northeast 428 493 27,000  Level FlightAware
11:56AM -21.6080 -41.7260 43° Northeast 428 493 27,000  Level FlightAware
11:56AM -21.5500 -41.6680 43° Northeast 428 493 27,000 -480 Level FlightAware
11:57AM -21.4820 -41.6000 43° Northeast 429 494 26,400 -1,380 Descending FlightAware
11:58AM -21.4290 -41.5480 42° Northeast 428 493 25,100 -1,560 Descending FlightAware
11:59AM -21.3550 -41.4740 43° Northeast 430 495 24,100 -720 Descending FlightAware
11:59AM -21.3050 -41.4240 43° Northeast 430 495 24,100  Level FlightAware
12:00PM -21.2560 -41.3750 43° Northeast 430 495 24,100  Level FlightAware
12:01PM -21.1940 -41.3130 43° Northeast 430 495 24,100  Level FlightAware
12:01PM -21.1570 -41.2760 43° Northeast 430 495 24,100 -3,120 Level FlightAware
12:02PM -21.1070 -41.2270 42° Northeast 17,700 -3,720 Descending FlightAware
12:04PM -20.9450 -41.0680 43° Northeast 378 435 14,000 -1,860 Descending FlightAware
12:05PM -20.8800 -41.0030 43° Northeast 360 414 12,400 -1,920 Descending FlightAware
12:05PM -20.8390 -40.9630 42° Northeast 353 406 11,500 -1,500 Descending FlightAware
12:06PM -20.7960 -40.9050 52° Northeast 344 396 10,300 -1,320 Descending FlightAware
12:07PM -20.7570 -40.8460 55° Northeast 319 367 9,600 -1,200 Descending FlightAware
12:07PM -20.7360 -40.8140 55° Northeast 314 361 9,000 -1,380 Descending FlightAware
12:08PM -20.7190 -40.7890 54° Northeast 311 358 8,600 -1,380 Descending FlightAware
12:08PM -20.7000 -40.7610 54° Northeast 308 354 8,100 -1,320 Descending FlightAware
12:09PM -20.6730 -40.7220 54° Northeast 303 349 7,400 -1,320 Descending FlightAware
12:09PM -20.6510 -40.6890 55° Northeast 301 346 6,800 -1,440 Descending FlightAware
12:09PM -20.6460 -40.6810 56° Northeast 299 344 6,700 -900 Descending FlightAware
12:10PM -20.6200 -40.6430 54° Northeast 291 335 6,200 -660 Descending FlightAware
12:10PM -20.5960 -40.6080 54° Northeast 268 308 6,000 -240 Descending FlightAware
12:11PM -20.5790 -40.5820 55° Northeast 248 285 6,000 -1,020 Level FlightAware
12:11PM -20.5590 -40.5520 55° Northeast 263 303 5,100 -1,920 Descending FlightAware
12:11PM -20.5500 -40.5380 56° Northeast 272 313 4,600 -1,020 Descending FlightAware
12:12PM -20.5160 -40.4890 53° Northeast 255 293 4,100 -600 Descending FlightAware
12:12PM -20.5050 -40.4720 55° Northeast 243 280 4,000 -180 Descending FlightAware
12:13PM -20.4900 -40.4500 54° Northeast 220 253 4,000 -240 Level FlightAware
12:13PM -20.4630 -40.4220 44° Northeast 204 235 3,800 -300 Descending FlightAware
12:14PM -20.4380 -40.4060 31° Northeast 195 224 3,700 -120 Descending FlightAware
12:14PM -20.4200 -40.3940 32° Northeast 187 215 3,700 -360 Level FlightAware
12:15PM -20.3880 -40.3720 33° Northeast 191 220 3,300 -840 Descending FlightAware
12:15PM -20.3750 -40.3640 30° Northeast 191 220 2,900 -1,200 Descending FlightAware
12:16PM -20.3670 -40.3590 30° Northeast 191 220 2,700 -1,080 Descending FlightAware
12:16PM -20.3410 -40.3420 32° Northeast 172 198 2,000 -1,200 Descending FlightAware
12:17PM -20.3220 -40.3290 33° Northeast 148 170 1,500 -960 Descending FlightAware
12:17PM -20.3150 -40.3240 34° Northeast 136 157 1,300 -960 Descending FlightAware
12:17PM -20.2990 -40.3140 30° Northeast 130 150 800 -1,020 Descending FlightAware
12:18PM -20.2850 -40.3050 31° Northeast 125 144 400 -720 Descending FlightAware
12:18PM -20.2710 -40.2960 31° Northeast 126 145 100 -600 Descending FlightAware
12:24PM -20.2581 -40.2864 91° East  Level Estimated
12:26PM -20.2581 -40.2864 290° West  Level Estimated
12:35PM -20.2581 -40.2864 288° West  Level Estimated
12:36PM -20.2581 -40.2864 13° North  Level Estimated
12:37PM -20.2581 -40.2864 13° North  Level Estimated
12:38PM -20.2581 -40.2864 13° North  Level Estimated
12:39PM -20.2581 -40.2864 13° North  Level Estimated
12:40PM -20.2581 -40.2864 13° North  Level Estimated
12:41PM -20.2581 -40.2864 13° North  Level Estimated
12:42PM -20.2581 -40.2864 13° North  Level Estimated
12:43PM -20.2581 -40.2864 13° North  Level Estimated